Time;durP1;ratioP1;P1;durP2;ratioP2;P2;SDS_P1;SDS_P2;PMS_P1;PMS_P2;Temp;Humidity;BMP_temperature;BMP_pressure;BME280_temperature;BME280_humidity;BME280_pressure;Samples;Min_cycle;Max_cycle;Signal;HPM_P1;HPM_P2
2023/04/29 00:01:33;;;;;;;3.10;3.00;;;;;;;;;;5032290;28;20513;-59
2023/04/29 00:04:01;;;;;;;4.57;3.33;;;;;;;;;;5031971;28;20442;-58
2023/04/29 00:06:27;;;;;;;3.53;3.23;;;;;;;;;;5032278;28;20455;-59
2023/04/29 00:08:56;;;;;;;6.10;3.40;;;;;;;;;;5032066;28;20835;-59
2023/04/29 00:11:22;;;;;;;4.63;3.33;;;;;;;;;;5032085;28;20458;-59
2023/04/29 00:13:50;;;;;;;3.50;3.30;;;;;;;;;;5032885;28;20430;-58
2023/04/29 00:16:17;;;;;;;4.27;3.30;;;;;;;;;;5038496;28;20411;-59
2023/04/29 00:18:43;;;;;;;6.33;3.80;;;;;;;;;;5037239;28;20453;-58
2023/04/29 00:21:09;;;;;;;4.10;3.80;;;;;;;;;;5037244;28;20479;-59
2023/04/29 00:23:35;;;;;;;3.00;2.80;;;;;;;;;;5038523;28;20565;-59
2023/04/29 00:26:02;;;;;;;4.13;3.40;;;;;;;;;;5038624;28;20916;-59
2023/04/29 00:28:28;;;;;;;3.20;3.10;;;;;;;;;;5038723;28;20398;-58
2023/04/29 00:30:56;;;;;;;3.13;3.03;;;;;;;;;;5037186;28;20554;-58
2023/04/29 00:33:22;;;;;;;8.10;3.60;;;;;;;;;;5038297;28;20422;-58
2023/04/29 00:35:48;;;;;;;3.10;2.97;;;;;;;;;;5038604;28;20480;-59
2023/04/29 00:38:14;;;;;;;5.30;3.60;;;;;;;;;;5038345;28;20438;-58
2023/04/29 00:40:40;;;;;;;4.10;3.53;;;;;;;;;;5038363;28;20425;-58
2023/04/29 00:43:06;;;;;;;4.43;3.43;;;;;;;;;;5038386;28;20441;-59
2023/04/29 00:45:32;;;;;;;3.30;3.10;;;;;;;;;;5038419;28;20422;-58
2023/04/29 00:47:58;;;;;;;2.60;2.40;;;;;;;;;;5038439;28;20481;-58
2023/04/29 00:50:24;;;;;;;13.13;3.30;;;;;;;;;;5038252;28;20500;-59
2023/04/29 00:52:53;;;;;;;3.17;2.83;;;;;;;;;;5038647;28;20464;-58
2023/04/29 00:55:19;;;;;;;3.73;3.00;;;;;;;;;;5038294;28;20488;-57
2023/04/29 00:57:51;;;;;;;3.10;3.00;;;;;;;;;;5038394;28;20784;-59
2023/04/29 01:00:17;;;;;;;3.07;2.87;;;;;;;;;;5038299;28;20445;-59
2023/04/29 01:02:44;;;;;;;3.23;3.10;;;;;;;;;;5038137;28;20525;-59
2023/04/29 01:05:10;;;;;;;3.23;3.03;;;;;;;;;;5037996;28;20520;-59
2023/04/29 01:07:39;;;;;;;3.70;3.60;;;;;;;;;;5038558;28;20418;-59
2023/04/29 01:10:11;;;;;;;6.13;3.13;;;;;;;;;;5038181;28;20470;-58
2023/04/29 01:12:50;;;;;;;2.60;2.53;;;;;;;;;;5038284;28;20430;-58
2023/04/29 01:15:21;;;;;;;3.73;3.13;;;;;;;;;;5038206;28;20418;-58
2023/04/29 01:17:54;;;;;;;3.77;2.73;;;;;;;;;;5038226;28;20828;-59
2023/04/29 01:20:22;;;;;;;2.90;2.83;;;;;;;;;;5038041;28;20433;-59
2023/04/29 01:22:48;;;;;;;5.07;3.03;;;;;;;;;;5036721;28;20464;-59
2023/04/29 01:25:14;;;;;;;3.50;3.20;;;;;;;;;;5037803;28;20902;-59
2023/04/29 01:27:52;;;;;;;3.27;3.10;;;;;;;;;;5034025;28;20428;-59
2023/04/29 01:30:24;;;;;;;3.53;3.43;;;;;;;;;;5033698;28;20595;-59
2023/04/29 01:33:02;;;;;;;3.43;3.40;;;;;;;;;;5034875;28;20476;-59
2023/04/29 01:35:41;;;;;;;9.10;3.63;;;;;;;;;;5033550;28;20430;-59
2023/04/29 01:38:22;;;;;;;3.93;3.63;;;;;;;;;;5034700;28;20512;-58
2023/04/29 01:40:55;;;;;;;3.80;3.70;;;;;;;;;;5034901;28;20427;-59
2023/04/29 01:43:23;;;;;;;3.77;3.47;;;;;;;;;;5034766;28;20433;-59
2023/04/29 01:45:50;;;;;;;3.60;3.40;;;;;;;;;;5034796;28;20433;-59
2023/04/29 01:48:18;;;;;;;8.23;3.30;;;;;;;;;;5034575;28;20415;-58
2023/04/29 01:50:45;;;;;;;4.63;3.70;;;;;;;;;;5034734;28;20568;-59
2023/04/29 01:53:11;;;;;;;4.30;4.00;;;;;;;;;;5034777;28;20484;-59
2023/04/29 01:55:37;;;;;;;13.93;3.47;;;;;;;;;;5034329;28;20454;-59
2023/04/29 01:58:05;;;;;;;3.67;3.47;;;;;;;;;;5034389;28;20405;-59
2023/04/29 02:00:31;;;;;;;7.90;3.80;;;;;;;;;;5034345;28;20825;-59
2023/04/29 02:02:59;;;;;;;4.33;3.97;;;;;;;;;;5034451;28;20407;-58
2023/04/29 02:05:25;;;;;;;6.73;3.40;;;;;;;;;;5034329;28;20419;-58
2023/04/29 02:07:51;;;;;;;3.00;2.90;;;;;;;;;;5034335;28;20409;-59
2023/04/29 02:10:17;;;;;;;3.27;3.07;;;;;;;;;;5034187;28;20471;-59
2023/04/29 02:12:43;;;;;;;3.57;2.77;;;;;;;;;;5033970;28;20429;-58
2023/04/29 02:15:09;;;;;;;2.80;2.70;;;;;;;;;;5034192;28;20414;-59
2023/04/29 02:17:35;;;;;;;5.43;3.03;;;;;;;;;;5033935;28;20430;-59
2023/04/29 02:20:01;;;;;;;4.70;3.20;;;;;;;;;;5034051;28;20430;-58
2023/04/29 02:22:30;;;;;;;3.40;3.30;;;;;;;;;;5034067;28;20418;-59
2023/04/29 02:24:57;;;;;;;3.90;3.60;;;;;;;;;;5033976;28;20428;-59
2023/04/29 02:27:23;;;;;;;3.70;3.40;;;;;;;;;;5034163;28;20787;-59
2023/04/29 02:29:50;;;;;;;4.33;2.80;;;;;;;;;;5033574;28;20445;-59
2023/04/29 02:32:18;;;;;;;4.60;2.70;;;;;;;;;;5033669;28;20410;-59
2023/04/29 02:34:44;;;;;;;3.33;3.20;;;;;;;;;;5033729;28;20405;-58
2023/04/29 02:37:11;;;;;;;3.23;2.93;;;;;;;;;;5033665;28;20436;-58
2023/04/29 02:39:37;;;;;;;5.80;2.73;;;;;;;;;;5033598;28;20476;-59
2023/04/29 02:42:05;;;;;;;3.23;3.13;;;;;;;;;;5033745;28;20408;-59
2023/04/29 02:44:31;;;;;;;7.13;2.87;;;;;;;;;;5033574;28;20452;-59
2023/04/29 02:46:57;;;;;;;3.27;3.07;;;;;;;;;;5032195;28;20428;-59
2023/04/29 02:49:23;;;;;;;3.80;3.33;;;;;;;;;;5033565;28;20428;-59
2023/04/29 02:51:49;;;;;;;3.43;3.23;;;;;;;;;;5033218;28;20509;-59
2023/04/29 02:54:16;;;;;;;3.00;2.83;;;;;;;;;;5033262;28;20438;-59
2023/04/29 02:56:42;;;;;;;3.37;3.17;;;;;;;;;;5033158;28;20484;-59
2023/04/29 02:59:08;;;;;;;2.70;2.70;;;;;;;;;;5033225;28;20405;-59
2023/04/29 03:01:34;;;;;;;2.83;2.73;;;;;;;;;;5033229;28;20448;-59
2023/04/29 03:04:00;;;;;;;3.20;3.10;;;;;;;;;;5033284;28;20438;-59
2023/04/29 03:06:26;;;;;;;4.80;3.20;;;;;;;;;;5033121;28;20425;-59
2023/04/29 03:08:53;;;;;;;3.93;2.90;;;;;;;;;;5032898;28;20449;-59
2023/04/29 03:11:19;;;;;;;3.67;3.37;;;;;;;;;;5033074;28;20466;-59
2023/04/29 03:13:45;;;;;;;3.20;2.80;;;;;;;;;;5032855;28;20927;-59
2023/04/29 03:16:13;;;;;;;2.83;2.73;;;;;;;;;;5033217;28;20758;-59
2023/04/29 03:18:39;;;;;;;3.60;3.30;;;;;;;;;;5032756;28;20508;-59
2023/04/29 03:21:05;;;;;;;3.53;3.20;;;;;;;;;;5032796;28;20411;-59
2023/04/29 03:23:31;;;;;;;3.37;3.20;;;;;;;;;;5033133;28;20430;-59
2023/04/29 03:26:00;;;;;;;3.23;3.03;;;;;;;;;;5032662;28;20444;-58
2023/04/29 03:28:26;;;;;;;3.67;3.30;;;;;;;;;;5032930;28;20466;-59
2023/04/29 03:30:52;;;;;;;3.30;3.20;;;;;;;;;;5032609;28;20473;-59
2023/04/29 03:33:21;;;;;;;2.77;2.57;;;;;;;;;;5032765;28;20877;-59
2023/04/29 03:35:47;;;;;;;3.73;3.43;;;;;;;;;;5032598;28;20435;-59
2023/04/29 03:38:13;;;;;;;3.70;3.40;;;;;;;;;;5032601;28;20433;-59
2023/04/29 03:40:39;;;;;;;3.50;3.00;;;;;;;;;;5032508;28;20408;-58
2023/04/29 03:43:07;;;;;;;3.33;3.07;;;;;;;;;;5032302;28;20456;-59
2023/04/29 03:45:33;;;;;;;3.40;3.30;;;;;;;;;;5032951;28;20876;-59
2023/04/29 03:47:59;;;;;;;2.93;2.83;;;;;;;;;;5032380;28;20508;-59
2023/04/29 03:50:26;;;;;;;3.80;3.10;;;;;;;;;;5031899;28;20464;-57
2023/04/29 03:52:51;;;;;;;3.30;3.17;;;;;;;;;;5032286;28;20920;-59
2023/04/29 03:55:20;;;;;;;3.37;3.03;;;;;;;;;;5032370;28;20420;-59
2023/04/29 03:57:46;;;;;;;3.20;3.10;;;;;;;;;;5032252;28;20853;-59
2023/04/29 04:00:12;;;;;;;2.63;2.20;;;;;;;;;;5032166;28;20515;-58
2023/04/29 04:02:38;;;;;;;4.20;2.90;;;;;;;;;;5032228;28;20433;-59
2023/04/29 04:05:04;;;;;;;3.57;3.20;;;;;;;;;;5032082;28;20827;-59
2023/04/29 04:07:30;;;;;;;3.33;2.90;;;;;;;;;;5032271;28;20441;-58
2023/04/29 04:09:56;;;;;;;7.97;3.17;;;;;;;;;;5031966;28;20518;-58
2023/04/29 04:12:22;;;;;;;2.30;2.30;;;;;;;;;;5032424;28;20416;-59
2023/04/29 04:14:48;;;;;;;4.13;3.00;;;;;;;;;;5032838;28;20517;-59
2023/04/29 04:17:14;;;;;;;2.67;2.57;;;;;;;;;;5033340;28;20405;-59
2023/04/29 04:19:40;;;;;;;3.03;2.83;;;;;;;;;;5032904;28;20830;-59
2023/04/29 04:22:06;;;;;;;4.10;3.73;;;;;;;;;;5032392;28;20405;-59
2023/04/29 04:24:32;;;;;;;4.90;4.47;;;;;;;;;;5032203;28;20463;-59
2023/04/29 04:26:58;;;;;;;6.17;4.57;;;;;;;;;;5032435;28;20429;-57
2023/04/29 04:29:29;;;;;;;4.80;4.40;;;;;;;;;;5032782;28;20417;-57
2023/04/29 04:31:55;;;;;;;8.17;6.17;;;;;;;;;;5032530;28;20550;-58
2023/04/29 04:34:21;;;;;;;6.50;5.73;;;;;;;;;;5032636;28;20444;-57
2023/04/29 04:36:50;;;;;;;5.77;5.17;;;;;;;;;;5032419;28;20469;-58
2023/04/29 04:39:16;;;;;;;7.57;5.10;;;;;;;;;;5032377;28;20444;-57
2023/04/29 04:41:42;;;;;;;10.40;5.10;;;;;;;;;;5032218;28;20512;-58
2023/04/29 04:44:08;;;;;;;4.50;4.10;;;;;;;;;;5032163;28;20440;-58
2023/04/29 04:46:36;;;;;;;55.27;42.43;;;;;;;;;;5032267;28;20440;-58
2023/04/29 04:49:02;;;;;;;6.07;5.27;;;;;;;;;;5032223;28;20411;-58
2023/04/29 04:51:31;;;;;;;5.67;4.67;;;;;;;;;;5032313;28;20474;-58
2023/04/29 04:53:57;;;;;;;7.33;4.53;;;;;;;;;;5032257;28;20450;-59
2023/04/29 04:56:22;;;;;;;5.13;4.33;;;;;;;;;;5032008;28;20847;-58
2023/04/29 04:58:49;;;;;;;3.40;3.10;;;;;;;;;;5031972;28;20416;-58
2023/04/29 05:01:15;;;;;;;8.20;4.40;;;;;;;;;;5032724;28;20450;-59
2023/04/29 05:03:41;;;;;;;5.33;4.33;;;;;;;;;;5035812;28;20420;-57
2023/04/29 05:06:07;;;;;;;5.93;5.10;;;;;;;;;;5035687;28;20423;-59
2023/04/29 05:08:33;;;;;;;6.73;4.80;;;;;;;;;;5035769;28;20772;-58
2023/04/29 05:10:59;;;;;;;5.23;4.73;;;;;;;;;;5035704;28;20509;-59
2023/04/29 05:13:27;;;;;;;4.97;4.77;;;;;;;;;;5035482;28;20467;-59
2023/04/29 05:15:53;;;;;;;4.83;4.37;;;;;;;;;;5035556;28;20436;-59
2023/04/29 05:18:19;;;;;;;4.50;4.40;;;;;;;;;;5035491;28;20444;-58
2023/04/29 05:20:45;;;;;;;4.77;4.57;;;;;;;;;;5035628;28;20422;-58
2023/04/29 05:23:11;;;;;;;4.33;4.23;;;;;;;;;;5035444;28;20427;-59
2023/04/29 05:25:40;;;;;;;4.83;4.53;;;;;;;;;;5035520;28;20478;-59
2023/04/29 05:28:09;;;;;;;4.30;4.10;;;;;;;;;;5035469;28;20412;-59
2023/04/29 05:30:36;;;;;;;8.03;5.03;;;;;;;;;;5035206;28;20487;-59
2023/04/29 05:33:02;;;;;;;4.37;4.07;;;;;;;;;;5035305;28;20430;-58
2023/04/29 05:35:31;;;;;;;6.20;4.13;;;;;;;;;;5035362;28;20912;-58
2023/04/29 05:37:57;;;;;;;3.93;3.63;;;;;;;;;;5035273;28;20436;-57
2023/04/29 05:40:23;;;;;;;4.10;3.80;;;;;;;;;;5035194;28;20428;-59
2023/04/29 05:42:49;;;;;;;2.87;2.87;;;;;;;;;;5035130;28;20439;-58
2023/04/29 05:45:15;;;;;;;4.00;3.70;;;;;;;;;;5034976;28;20474;-59
2023/04/29 05:47:41;;;;;;;3.00;2.90;;;;;;;;;;5034863;28;20500;-59
2023/04/29 05:50:07;;;;;;;2.97;2.97;;;;;;;;;;5034847;28;20980;-61
2023/04/29 05:52:33;;;;;;;3.03;2.80;;;;;;;;;;5034671;28;20486;-61
2023/04/29 05:54:59;;;;;;;2.67;2.57;;;;;;;;;;5034460;28;20467;-61
2023/04/29 05:57:26;;;;;;;3.00;2.57;;;;;;;;;;5034038;28;21031;-60
2023/04/29 05:59:54;;;;;;;2.87;2.67;;;;;;;;;;5034801;28;20416;-59
2023/04/29 06:02:20;;;;;;;3.13;3.07;;;;;;;;;;5034593;28;20786;-60
2023/04/29 06:04:48;;;;;;;2.60;2.50;;;;;;;;;;5034664;28;20422;-60
2023/04/29 06:07:17;;;;;;;2.77;2.67;;;;;;;;;;5034685;28;20440;-59
2023/04/29 06:09:45;;;;;;;2.87;2.77;;;;;;;;;;5034462;28;20410;-60
2023/04/29 06:12:12;;;;;;;2.27;2.20;;;;;;;;;;5034052;28;20973;-60
2023/04/29 06:14:38;;;;;;;3.00;2.80;;;;;;;;;;5034574;28;20426;-59
2023/04/29 06:17:06;;;;;;;2.63;2.53;;;;;;;;;;5034774;28;20494;-59
2023/04/29 06:19:32;;;;;;;3.97;2.87;;;;;;;;;;5034570;28;20776;-60
2023/04/29 06:21:58;;;;;;;3.37;3.20;;;;;;;;;;5034431;28;20437;-59
2023/04/29 06:24:24;;;;;;;3.67;3.57;;;;;;;;;;5034308;28;20418;-60
2023/04/29 06:26:51;;;;;;;3.87;3.57;;;;;;;;;;5034034;28;20432;-59
2023/04/29 06:29:17;;;;;;;7.17;6.67;;;;;;;;;;5034048;28;20460;-60
2023/04/29 06:31:43;;;;;;;7.07;6.50;;;;;;;;;;5031949;28;20503;-60
2023/04/29 06:34:11;;;;;;;6.67;5.80;;;;;;;;;;5033004;28;20491;-60
2023/04/29 06:36:37;;;;;;;3.63;3.53;;;;;;;;;;5032861;28;20457;-60
2023/04/29 06:39:04;;;;;;;3.77;3.43;;;;;;;;;;5033100;28;20440;-60
2023/04/29 06:41:30;;;;;;;4.87;4.67;;;;;;;;;;5033601;28;20786;-60
2023/04/29 06:43:56;;;;;;;3.10;2.90;;;;;;;;;;5033592;28;20422;-59
2023/04/29 06:46:22;;;;;;;2.80;2.70;;;;;;;;;;5033880;28;20433;-60
2023/04/29 06:48:48;;;;;;;3.17;3.07;;;;;;;;;;5033817;28;20506;-60
2023/04/29 06:51:15;;;;;;;2.40;2.40;;;;;;;;;;5033871;28;20461;-60
2023/04/29 06:53:41;;;;;;;3.07;2.97;;;;;;;;;;5033477;28;20511;-60
2023/04/29 06:56:07;;;;;;;2.40;2.30;;;;;;;;;;5033651;28;20508;-60
2023/04/29 06:58:33;;;;;;;2.50;2.30;;;;;;;;;;5033635;28;20439;-60
2023/04/29 07:00:59;;;;;;;2.30;2.30;;;;;;;;;;5033782;28;20917;-59
2023/04/29 07:03:25;;;;;;;4.33;2.10;;;;;;;;;;5033663;28;20431;-59
2023/04/29 07:05:51;;;;;;;3.10;3.00;;;;;;;;;;5033700;28;20418;-60
2023/04/29 07:08:17;;;;;;;2.97;2.77;;;;;;;;;;5033670;28;20522;-60
2023/04/29 07:10:43;;;;;;;4.03;2.67;;;;;;;;;;5033441;28;20466;-60
2023/04/29 07:13:09;;;;;;;2.87;2.67;;;;;;;;;;5033673;28;20445;-59
2023/04/29 07:15:35;;;;;;;3.10;2.90;;;;;;;;;;5033680;28;20407;-59
2023/04/29 07:18:03;;;;;;;2.77;2.53;;;;;;;;;;5033345;28;20450;-60
2023/04/29 07:20:29;;;;;;;2.40;2.30;;;;;;;;;;5033327;28;20423;-60
2023/04/29 07:22:55;;;;;;;2.70;2.20;;;;;;;;;;5033037;28;20911;-60
2023/04/29 07:25:21;;;;;;;3.47;2.20;;;;;;;;;;5032490;28;20404;-59
2023/04/29 07:27:47;;;;;;;2.27;2.07;;;;;;;;;;5033086;28;20432;-60
2023/04/29 07:30:13;;;;;;;2.30;2.10;;;;;;;;;;5032957;28;20464;-60
2023/04/29 07:32:39;;;;;;;2.53;2.43;;;;;;;;;;5032818;28;20446;-60
2023/04/29 07:35:05;;;;;;;1.90;1.80;;;;;;;;;;5033083;28;20932;-59
2023/04/29 07:37:32;;;;;;;3.13;2.47;;;;;;;;;;5032820;28;20899;-60
2023/04/29 07:39:58;;;;;;;2.07;1.97;;;;;;;;;;5031718;28;20592;-60
2023/04/29 07:42:26;;;;;;;1.90;1.80;;;;;;;;;;5031454;28;20413;-60
2023/04/29 07:44:54;;;;;;;2.00;2.00;;;;;;;;;;5030454;28;20495;-60
2023/04/29 07:47:23;;;;;;;2.70;2.60;;;;;;;;;;5032728;28;20450;-60
2023/04/29 07:49:49;;;;;;;2.50;2.03;;;;;;;;;;5032436;28;20488;-60
2023/04/29 07:52:15;;;;;;;5.00;4.57;;;;;;;;;;5032202;28;20495;-60
2023/04/29 07:54:41;;;;;;;3.47;3.27;;;;;;;;;;5032501;28;20960;-60
2023/04/29 07:57:07;;;;;;;2.00;1.97;;;;;;;;;;5032560;28;20405;-60
2023/04/29 07:59:33;;;;;;;2.27;2.17;;;;;;;;;;5032519;28;20412;-60
2023/04/29 08:01:59;;;;;;;2.40;2.30;;;;;;;;;;5032521;28;20496;-59
2023/04/29 08:04:25;;;;;;;2.30;2.10;;;;;;;;;;5032518;28;20443;-59
2023/04/29 08:06:51;;;;;;;2.07;1.90;;;;;;;;;;5032346;28;20413;-60
2023/04/29 08:09:17;;;;;;;2.60;2.40;;;;;;;;;;5031600;28;20919;-59
2023/04/29 08:11:45;;;;;;;2.40;2.20;;;;;;;;;;5031768;28;20848;-59
2023/04/29 08:14:11;;;;;;;2.70;2.50;;;;;;;;;;5031681;28;20808;-60
2023/04/29 08:16:37;;;;;;;2.63;2.50;;;;;;;;;;5031862;28;20420;-59
2023/04/29 08:19:03;;;;;;;3.70;3.40;;;;;;;;;;5032027;28;20495;-60
2023/04/29 08:21:31;;;;;;;3.23;2.93;;;;;;;;;;5032430;28;20408;-60
2023/04/29 08:23:57;;;;;;;3.40;3.20;;;;;;;;;;5032296;28;20482;-60
2023/04/29 08:26:23;;;;;;;3.50;3.20;;;;;;;;;;5032388;28;20408;-59
2023/04/29 08:28:48;;;;;;;3.17;2.97;;;;;;;;;;5032124;28;20928;-60
2023/04/29 08:31:18;;;;;;;3.33;3.00;;;;;;;;;;5032369;28;20463;-60
2023/04/29 08:33:44;;;;;;;2.77;2.67;;;;;;;;;;5032284;28;20435;-59
2023/04/29 08:36:10;;;;;;;2.93;2.27;;;;;;;;;;5033234;28;20432;-60
2023/04/29 08:38:36;;;;;;;2.40;2.40;;;;;;;;;;5034979;28;20943;-60
2023/04/29 08:41:02;;;;;;;2.90;2.80;;;;;;;;;;5035949;28;20458;-60
2023/04/29 08:43:28;;;;;;;3.30;3.10;;;;;;;;;;5035949;28;20452;-60
2023/04/29 08:45:54;;;;;;;5.03;3.30;;;;;;;;;;5036047;28;20470;-59
2023/04/29 08:48:20;;;;;;;3.73;3.43;;;;;;;;;;5036155;28;20907;-60
2023/04/29 08:50:46;;;;;;;3.20;3.00;;;;;;;;;;5036136;28;20964;-60
2023/04/29 08:53:13;;;;;;;9.50;8.47;;;;;;;;;;5035924;28;20426;-59
2023/04/29 08:55:42;;;;;;;24.33;13.90;;;;;;;;;;5036044;28;20424;-60
2023/04/29 08:58:09;;;;;;;22.03;11.57;;;;;;;;;;5036162;28;20412;-60
2023/04/29 09:00:36;;;;;;;23.20;14.50;;;;;;;;;;5035753;28;20438;-60
2023/04/29 09:03:11;;;;;;;3.63;3.53;;;;;;;;;;5035272;28;20831;-59
2023/04/29 09:05:40;;;;;;;3.73;3.53;;;;;;;;;;5035997;28;20429;-60
2023/04/29 09:08:09;;;;;;;5.00;4.67;;;;;;;;;;5035396;28;20506;-59
2023/04/29 09:10:36;;;;;;;3.00;3.00;;;;;;;;;;5035561;28;20960;-60
2023/04/29 09:13:02;;;;;;;4.43;4.33;;;;;;;;;;5035462;28;20493;-60
2023/04/29 09:15:28;;;;;;;3.90;3.70;;;;;;;;;;5035587;28;20429;-59
2023/04/29 09:17:54;;;;;;;5.17;4.10;;;;;;;;;;5035599;28;20413;-60
2023/04/29 09:20:20;;;;;;;4.07;3.80;;;;;;;;;;5035432;28;20414;-60
2023/04/29 09:22:56;;;;;;;4.43;4.20;;;;;;;;;;5035602;28;20413;-60
2023/04/29 09:25:22;;;;;;;3.83;3.67;;;;;;;;;;5035344;28;20465;-60
2023/04/29 09:27:48;;;;;;;5.17;4.80;;;;;;;;;;5035323;28;20420;-60
2023/04/29 09:30:15;;;;;;;3.03;2.93;;;;;;;;;;5035499;28;20453;-60
2023/04/29 09:32:42;;;;;;;3.97;3.30;;;;;;;;;;5035506;28;20830;-60
2023/04/29 09:35:20;;;;;;;4.30;4.20;;;;;;;;;;5035142;28;20448;-60
2023/04/29 09:37:46;;;;;;;2.77;2.53;;;;;;;;;;5035318;28;20409;-60
2023/04/29 09:40:33;;;;;;;3.67;3.47;;;;;;;;;;5035166;28;20507;-60
2023/04/29 09:42:59;;;;;;;4.10;3.90;;;;;;;;;;5035141;28;20458;-60
2023/04/29 09:45:35;;;;;;;4.07;3.87;;;;;;;;;;5034952;28;20488;-60
2023/04/29 09:48:05;;;;;;;4.00;3.80;;;;;;;;;;5034181;28;20433;-60
2023/04/29 09:50:31;;;;;;;4.27;4.07;;;;;;;;;;5034801;28;20980;-60
2023/04/29 09:52:57;;;;;;;3.47;3.37;;;;;;;;;;5034864;28;20902;-60
2023/04/29 09:55:23;;;;;;;3.90;3.70;;;;;;;;;;5034547;28;20437;-59
2023/04/29 09:57:52;;;;;;;3.07;2.77;;;;;;;;;;5034969;28;20786;-60
2023/04/29 10:00:18;;;;;;;3.33;2.80;;;;;;;;;;5034692;28;20520;-60
2023/04/29 10:02:50;;;;;;;3.50;3.20;;;;;;;;;;5034680;28;20458;-60
2023/04/29 10:05:18;;;;;;;3.50;3.40;;;;;;;;;;5034536;28;20442;-60
2023/04/29 10:07:47;;;;;;;2.97;2.87;;;;;;;;;;5034756;28;20407;-60
2023/04/29 10:10:13;;;;;;;5.27;2.77;;;;;;;;;;5034448;28;20814;-59
2023/04/29 10:12:40;;;;;;;3.27;2.97;;;;;;;;;;5034570;28;20413;-60
2023/04/29 10:15:07;;;;;;;3.57;3.27;;;;;;;;;;5034606;28;20926;-60
2023/04/29 10:17:36;;;;;;;3.20;3.10;;;;;;;;;;5034511;28;21185;-60
2023/04/29 10:20:06;;;;;;;3.03;2.33;;;;;;;;;;5034500;28;20600;-59
2023/04/29 10:22:55;;;;;;;3.30;3.10;;;;;;;;;;5033921;28;20452;-59
2023/04/29 10:25:22;;;;;;;3.83;3.30;;;;;;;;;;5034284;28;20870;-59
2023/04/29 10:27:49;;;;;;;3.17;3.10;;;;;;;;;;5034233;28;20509;-59
2023/04/29 10:30:16;;;;;;;3.13;3.03;;;;;;;;;;5034090;28;20935;-59
2023/04/29 10:32:46;;;;;;;4.53;4.13;;;;;;;;;;5034135;28;20412;-59
2023/04/29 10:35:18;;;;;;;16.00;12.53;;;;;;;;;;5034106;28;20430;-59
2023/04/29 10:37:45;;;;;;;3.87;3.67;;;;;;;;;;5034071;28;20420;-59
2023/04/29 10:40:20;;;;;;;6.30;3.80;;;;;;;;;;5034295;28;20849;-59
2023/04/29 10:42:50;;;;;;;4.03;3.80;;;;;;;;;;5034028;28;20415;-59
2023/04/29 10:45:19;;;;;;;4.10;3.97;;;;;;;;;;5033971;28;20489;-59
2023/04/29 10:48:09;;;;;;;4.60;4.40;;;;;;;;;;5033772;28;20894;-59
2023/04/29 10:50:35;;;;;;;4.47;4.00;;;;;;;;;;5033371;28;20518;-59
2023/04/29 10:53:01;;;;;;;3.90;3.80;;;;;;;;;;5033522;28;20433;-59
2023/04/29 10:55:27;;;;;;;4.80;4.50;;;;;;;;;;5033478;28;20543;-59
2023/04/29 10:57:55;;;;;;;5.13;4.73;;;;;;;;;;5033540;28;20408;-59
2023/04/29 11:00:22;;;;;;;3.83;3.60;;;;;;;;;;5033537;28;20935;-59
2023/04/29 11:02:51;;;;;;;3.63;3.53;;;;;;;;;;5033723;28;20412;-59
2023/04/29 11:05:28;;;;;;;3.87;3.67;;;;;;;;;;5033615;28;20587;-60
2023/04/29 11:08:21;;;;;;;3.80;3.60;;;;;;;;;;5033469;28;20429;-60
2023/04/29 11:10:51;;;;;;;3.70;3.50;;;;;;;;;;5033324;28;20472;-60
2023/04/29 11:13:21;;;;;;;3.93;3.77;;;;;;;;;;5033328;28;20895;-60
2023/04/29 11:15:47;;;;;;;7.50;3.70;;;;;;;;;;5033910;28;20800;-60
2023/04/29 11:18:14;;;;;;;9.30;3.77;;;;;;;;;;5033392;28;20425;-59
2023/04/29 11:21:01;;;;;;;3.53;3.37;;;;;;;;;;5033207;28;20441;-59
2023/04/29 11:23:27;;;;;;;5.23;3.50;;;;;;;;;;5033169;28;20444;-59
2023/04/29 11:25:54;;;;;;;2.30;2.30;;;;;;;;;;5033027;28;20440;-59
2023/04/29 11:28:20;;;;;;;3.30;3.17;;;;;;;;;;5033148;28;20430;-59
2023/04/29 11:30:46;;;;;;;3.50;3.30;;;;;;;;;;5033030;28;20571;-59
2023/04/29 11:33:13;;;;;;;3.00;2.90;;;;;;;;;;5033130;28;20435;-59
2023/04/29 11:35:39;;;;;;;3.20;3.00;;;;;;;;;;5032893;28;20437;-59
2023/04/29 11:38:06;;;;;;;5.73;5.47;;;;;;;;;;5032956;28;20418;-59
2023/04/29 11:40:32;;;;;;;3.67;3.47;;;;;;;;;;5032954;28;20496;-58
2023/04/29 11:42:58;;;;;;;3.10;3.00;;;;;;;;;;5032798;28;20907;-59
2023/04/29 11:45:25;;;;;;;3.03;2.93;;;;;;;;;;5032794;28;20441;-59
2023/04/29 11:47:53;;;;;;;3.23;2.73;;;;;;;;;;5032844;28;20940;-60
2023/04/29 11:50:19;;;;;;;2.90;2.80;;;;;;;;;;5032620;28;20998;-60
2023/04/29 11:52:46;;;;;;;2.07;1.97;;;;;;;;;;5032729;28;20411;-59
2023/04/29 11:55:13;;;;;;;2.50;2.40;;;;;;;;;;5032579;28;20922;-59
2023/04/29 11:57:39;;;;;;;2.57;2.47;;;;;;;;;;5032978;28;20406;-59
2023/04/29 12:00:09;;;;;;;2.80;2.30;;;;;;;;;;5032603;28;20449;-60
2023/04/29 12:02:35;;;;;;;2.00;1.90;;;;;;;;;;5032498;28;20795;-59
2023/04/29 12:05:06;;;;;;;7.00;2.83;;;;;;;;;;5032565;28;20411;-59
2023/04/29 12:07:31;;;;;;;2.63;2.43;;;;;;;;;;5032998;28;20422;-61
2023/04/29 12:09:58;;;;;;;3.07;2.80;;;;;;;;;;5032265;28;20893;-59
2023/04/29 12:12:35;;;;;;;2.40;2.33;;;;;;;;;;5032580;28;20524;-63
2023/04/29 12:15:02;;;;;;;3.00;2.70;;;;;;;;;;5032517;28;20404;-59
2023/04/29 12:17:28;;;;;;;8.53;2.80;;;;;;;;;;5032532;28;20419;-59
2023/04/29 12:19:54;;;;;;;2.40;2.33;;;;;;;;;;5032641;28;20494;-65
2023/04/29 12:22:20;;;;;;;3.87;2.97;;;;;;;;;;5032515;28;20430;-60
2023/04/29 12:24:53;;;;;;;2.73;2.63;;;;;;;;;;5032430;28;20422;-58
2023/04/29 12:27:21;;;;;;;2.50;2.40;;;;;;;;;;5032648;28;20405;-59
2023/04/29 12:29:47;;;;;;;3.27;3.07;;;;;;;;;;5032261;28;20449;-59
2023/04/29 12:32:17;;;;;;;2.87;2.77;;;;;;;;;;5032363;28;20466;-60
2023/04/29 12:34:46;;;;;;;3.10;3.00;;;;;;;;;;5032587;28;20419;-59
2023/04/29 12:37:12;;;;;;;2.60;2.60;;;;;;;;;;5032313;28;20445;-59
2023/04/29 12:39:38;;;;;;;4.73;3.40;;;;;;;;;;5032293;28;20423;-59
2023/04/29 12:42:04;;;;;;;10.53;9.53;;;;;;;;;;5032104;28;20438;-60
2023/04/29 12:44:36;;;;;;;3.77;3.67;;;;;;;;;;5032219;28;20410;-59
2023/04/29 12:47:09;;;;;;;3.50;3.20;;;;;;;;;;5031962;28;20427;-59
2023/04/29 12:49:39;;;;;;;3.73;3.53;;;;;;;;;;5031914;28;20419;-59
2023/04/29 12:52:08;;;;;;;3.20;3.10;;;;;;;;;;5031934;28;20483;-59
2023/04/29 12:54:35;;;;;;;3.30;3.10;;;;;;;;;;5032057;28;20453;-59
2023/04/29 12:57:01;;;;;;;3.00;2.90;;;;;;;;;;5031876;28;20556;-59
2023/04/29 12:59:30;;;;;;;3.57;3.40;;;;;;;;;;5032088;28;20412;-59
2023/04/29 13:01:56;;;;;;;3.30;3.10;;;;;;;;;;5032050;28;20477;-59
2023/04/29 13:04:22;;;;;;;3.63;3.53;;;;;;;;;;5031916;28;20458;-60
2023/04/29 13:06:50;;;;;;;4.20;3.80;;;;;;;;;;5032121;28;20481;-59
2023/04/29 13:09:16;;;;;;;4.27;4.07;;;;;;;;;;5032041;28;20956;-59
2023/04/29 13:11:42;;;;;;;5.10;3.67;;;;;;;;;;5032029;28;20473;-60
2023/04/29 13:14:08;;;;;;;4.73;4.43;;;;;;;;;;5030621;28;20472;-59
2023/04/29 13:16:39;;;;;;;4.43;4.03;;;;;;;;;;5031963;28;20814;-60
2023/04/29 13:19:06;;;;;;;8.70;3.87;;;;;;;;;;5031939;28;20407;-60
2023/04/29 13:21:32;;;;;;;4.00;3.80;;;;;;;;;;5031868;28;20453;-59
2023/04/29 13:23:57;;;;;;;4.43;3.80;;;;;;;;;;5034935;28;20417;-59
2023/04/29 13:26:24;;;;;;;4.23;4.13;;;;;;;;;;5035394;28;20418;-59
2023/04/29 13:28:51;;;;;;;4.13;3.90;;;;;;;;;;5035435;28;20894;-60
2023/04/29 13:31:17;;;;;;;4.20;4.00;;;;;;;;;;5035505;28;20496;-59
2023/04/29 13:33:43;;;;;;;3.57;3.37;;;;;;;;;;5035219;28;20893;-59
2023/04/29 13:36:09;;;;;;;4.30;4.10;;;;;;;;;;5034043;28;20442;-59
2023/04/29 13:38:35;;;;;;;3.87;3.67;;;;;;;;;;5035327;28;20775;-59
2023/04/29 13:41:01;;;;;;;3.60;3.50;;;;;;;;;;5035105;28;20420;-60
2023/04/29 13:43:27;;;;;;;4.33;4.13;;;;;;;;;;5035212;28;20471;-59
2023/04/29 13:45:53;;;;;;;4.57;4.33;;;;;;;;;;5034982;28;20791;-60
2023/04/29 13:48:19;;;;;;;3.87;3.67;;;;;;;;;;5035436;28;20410;-59
2023/04/29 13:50:45;;;;;;;5.00;4.60;;;;;;;;;;5034766;28;20464;-61
2023/04/29 13:53:12;;;;;;;6.77;6.37;;;;;;;;;;5034867;28;20461;-58
2023/04/29 13:55:38;;;;;;;4.33;3.93;;;;;;;;;;5034778;28;20446;-57
2023/04/29 13:58:08;;;;;;;3.80;3.60;;;;;;;;;;5034818;28;20417;-57
2023/04/29 14:00:34;;;;;;;4.37;4.07;;;;;;;;;;5034914;28;20412;-56
2023/04/29 14:03:02;;;;;;;3.40;3.40;;;;;;;;;;5033542;28;20955;-58
2023/04/29 14:05:28;;;;;;;3.60;3.50;;;;;;;;;;5034749;28;20429;-58
2023/04/29 14:07:54;;;;;;;4.90;3.93;;;;;;;;;;5034570;28;20454;-57
2023/04/29 14:10:20;;;;;;;4.90;4.70;;;;;;;;;;5033170;28;20446;-58
2023/04/29 14:12:47;;;;;;;5.07;4.67;;;;;;;;;;5034536;28;20519;-57
2023/04/29 14:15:14;;;;;;;4.67;4.27;;;;;;;;;;5034542;28;20445;-58
2023/04/29 14:17:40;;;;;;;3.77;3.50;;;;;;;;;;5033160;28;20463;-58
2023/04/29 14:20:06;;;;;;;3.80;3.70;;;;;;;;;;5034439;28;20426;-57
2023/04/29 14:22:32;;;;;;;3.80;3.60;;;;;;;;;;5033219;28;20444;-57
2023/04/29 14:24:58;;;;;;;3.73;3.53;;;;;;;;;;5034318;28;20417;-57
2023/04/29 14:27:24;;;;;;;4.13;3.83;;;;;;;;;;5034294;28;20528;-56
2023/04/29 14:29:50;;;;;;;3.40;3.30;;;;;;;;;;5032873;28;20440;-57
2023/04/29 14:32:16;;;;;;;4.40;4.20;;;;;;;;;;5034056;28;20879;-57
2023/04/29 14:34:42;;;;;;;4.20;4.00;;;;;;;;;;5034194;28;20415;-58
2023/04/29 14:37:08;;;;;;;3.80;3.50;;;;;;;;;;5034145;28;20927;-56
2023/04/29 14:39:34;;;;;;;4.60;4.30;;;;;;;;;;5034137;28;20421;-57
2023/04/29 14:42:01;;;;;;;4.20;4.10;;;;;;;;;;5034021;28;20440;-57
2023/04/29 14:44:27;;;;;;;4.60;4.37;;;;;;;;;;5032781;28;20442;-57